Terminal Aerodrome Forecast
Issued by NWS Grand Forks, ND

Home | Current Version | Previous Version | Graphics & Text | Print | Product List | Glossary Off
Versions: 1 2 3 4 5 6 7 8 9 10 11 12 13 14 15 16 17 18 19 20 21 22 23

253
FTUS43 KFGF 260530
TAFGFK
TAF
KGFK 260530Z 2606/2706 16009KT P6SM BKN150
     FM260800 17005KT P6SM OVC025
     FM261000 VRB03KT P6SM OVC008
     FM261500 20003KT P6SM OVC070=

USA.gov is the U.S. government's official web portal to all federal, state and local government web resources and services.